createdAt,value
2023-02-26T00:02:26.027Z,24.32
2023-02-26T00:04:56.702Z,24.26
2023-02-26T00:07:30.490Z,24.29
2023-02-26T00:10:03.137Z,24.28
2023-02-26T00:12:34.030Z,24.36
2023-02-26T00:15:09.615Z,24.44
2023-02-26T00:17:51.993Z,24.44
2023-02-26T00:20:23.150Z,24.41
2023-02-26T00:22:55.537Z,24.39
2023-02-26T00:25:25.892Z,24.37
2023-02-26T00:27:59.307Z,24.35
2023-02-26T00:30:30.613Z,24.33
2023-02-26T00:33:01.694Z,24.26
2023-02-26T00:35:36.592Z,24.23
2023-02-26T00:38:11.245Z,24.20
2023-02-26T00:40:49.666Z,24.26
2023-02-26T00:43:28.134Z,24.18
2023-02-26T00:46:10.647Z,24.18
2023-02-26T00:49:02.568Z,24.15
2023-02-26T00:51:44.609Z,24.09
2023-02-26T00:54:23.588Z,24.08
2023-02-26T00:56:55.336Z,24.10
2023-02-26T00:59:28.150Z,24.16
2023-02-26T01:02:01.436Z,24.18
2023-02-26T01:04:32.835Z,24.18
2023-02-26T01:07:03.461Z,24.16
2023-02-26T01:09:39.338Z,24.15
2023-02-26T01:12:14.407Z,24.16
2023-02-26T01:14:45.221Z,24.20
2023-02-26T01:17:37.891Z,24.09
2023-02-26T01:20:13.018Z,23.99
2023-02-26T01:22:49.586Z,24.06
2023-02-26T01:25:26.266Z,24.02
2023-02-26T01:27:59.629Z,23.96
2023-02-26T01:30:29.922Z,23.96
2023-02-26T01:33:29.491Z,23.95
2023-02-26T01:36:10.303Z,23.92
2023-02-26T01:38:44.738Z,23.89
2023-02-26T01:41:52.662Z,23.95
2023-02-26T01:44:36.612Z,23.98
2023-02-26T01:47:30.528Z,23.96
2023-02-26T01:50:18.612Z,23.94
2023-02-26T01:52:51.837Z,23.92
2023-02-26T01:55:26.685Z,23.90
2023-02-26T01:57:59.987Z,23.92
2023-02-26T02:00:32.598Z,23.92
2023-02-26T02:03:03.618Z,23.90
2023-02-26T02:05:40.978Z,23.92
2023-02-26T02:08:11.475Z,23.89
2023-02-26T02:10:45.747Z,23.84
2023-02-26T02:13:31.009Z,23.85
2023-02-26T02:16:31.705Z,23.86
2023-02-26T02:19:24.907Z,23.82
2023-02-26T02:22:19.361Z,23.76
2023-02-26T02:25:19.260Z,23.69
2023-02-26T02:28:26.025Z,23.61
2023-02-26T02:31:14.603Z,23.55
2023-02-26T02:33:53.194Z,23.51
2023-02-26T02:36:51.011Z,23.44
2023-02-26T02:39:27.164Z,23.44
2023-02-26T02:42:06.334Z,23.43
2023-02-26T02:44:41.524Z,23.37
2023-02-26T02:47:14.390Z,23.35
2023-02-26T02:49:55.846Z,23.37
2023-02-26T02:52:51.291Z,23.37
2023-02-26T02:55:39.235Z,23.33
2023-02-26T02:58:19.987Z,23.30
2023-02-26T03:00:58.925Z,23.30
2023-02-26T03:03:55.297Z,23.31
2023-02-26T03:06:26.158Z,23.20
2023-02-26T03:08:56.738Z,23.24
2023-02-26T03:11:33.581Z,23.21
2023-02-26T03:14:31.178Z,23.28
2023-02-26T03:17:31.589Z,23.28
2023-02-26T03:20:30.753Z,23.17
2023-02-26T03:23:14.293Z,23.17
2023-02-26T03:25:57.302Z,23.15
2023-02-26T03:28:40.105Z,23.10
2023-02-26T03:31:14.124Z,23.04
2023-02-26T03:33:59.981Z,23.02
2023-02-26T03:37:17.087Z,22.93
2023-02-26T03:39:56.429Z,22.89
2023-02-26T03:42:42.770Z,22.94
2023-02-26T03:45:25.259Z,22.93
2023-02-26T03:47:58.439Z,22.87
2023-02-26T03:50:38.707Z,22.86
2023-02-26T03:54:03.525Z,22.90
2023-02-26T03:56:46.161Z,22.86
2023-02-26T03:59:53.949Z,22.73
2023-02-26T04:02:50.387Z,22.73
2023-02-26T04:05:24.875Z,22.69
2023-02-26T04:07:59.169Z,22.62
2023-02-26T04:10:54.041Z,22.70
2023-02-26T04:13:25.040Z,22.69
2023-02-26T04:15:55.538Z,22.64
2023-02-26T04:18:25.725Z,22.64
2023-02-26T04:20:57.095Z,22.59
2023-02-26T04:23:30.639Z,22.55
2023-02-26T04:26:02.201Z,22.60
2023-02-26T04:28:32.968Z,22.56
2023-02-26T04:31:06.661Z,22.55
2023-02-26T04:33:37.052Z,22.56
2023-02-26T04:36:07.465Z,22.57
2023-02-26T04:38:39.906Z,22.69
2023-02-26T04:41:14.734Z,22.79
2023-02-26T04:43:46.847Z,22.84
2023-02-26T04:46:27.997Z,22.90
2023-02-26T04:48:58.883Z,22.90
2023-02-26T04:51:36.236Z,22.89
2023-02-26T04:54:10.317Z,22.79
2023-02-26T04:56:40.576Z,22.82
2023-02-26T04:59:11.890Z,22.82
2023-02-26T05:01:45.625Z,22.82
2023-02-26T05:04:16.649Z,22.84
2023-02-26T05:06:51.617Z,22.89
2023-02-26T05:09:23.666Z,22.90
2023-02-26T05:11:54.226Z,22.97
2023-02-26T05:14:26.150Z,22.94
2023-02-26T05:16:56.419Z,22.94
2023-02-26T05:19:27.819Z,22.96
2023-02-26T05:22:00.176Z,22.99
2023-02-26T05:24:32.754Z,23.04
2023-02-26T05:27:06.326Z,23.02
2023-02-26T05:29:38.791Z,23.03
2023-02-26T05:32:10.550Z,23.03
2023-02-26T05:34:40.839Z,23.10
2023-02-26T05:37:10.829Z,23.13
2023-02-26T05:39:42.906Z,23.08
2023-02-26T05:42:13.063Z,23.11
2023-02-26T05:44:43.157Z,23.11
2023-02-26T05:47:13.510Z,23.08
2023-02-26T05:49:43.730Z,23.04
2023-02-26T05:52:14.700Z,22.96
2023-02-26T05:54:44.440Z,22.96
2023-02-26T05:57:16.074Z,22.90
2023-02-26T05:59:46.302Z,22.86
2023-02-26T06:02:17.169Z,22.92
2023-02-26T06:04:47.628Z,22.94
2023-02-26T06:07:17.702Z,22.99
2023-02-26T06:09:47.754Z,22.99
2023-02-26T06:12:17.955Z,23.07
2023-02-26T06:14:48.261Z,23.08
2023-02-26T06:17:21.178Z,23.11
2023-02-26T06:19:51.565Z,23.13
2023-02-26T06:22:21.655Z,23.15
2023-02-26T06:24:52.656Z,23.23
2023-02-26T06:27:23.068Z,23.28
2023-02-26T06:29:54.121Z,23.34
2023-02-26T06:32:25.571Z,23.40
2023-02-26T06:34:56.362Z,23.44
2023-02-26T06:37:26.945Z,23.43
2023-02-26T06:39:57.185Z,23.43
2023-02-26T06:42:28.398Z,23.50
2023-02-26T06:45:01.436Z,23.50
2023-02-26T06:47:31.459Z,23.44
2023-02-26T06:50:03.164Z,23.38
2023-02-26T06:52:34.276Z,23.24
2023-02-26T06:55:06.469Z,23.15
2023-02-26T06:57:37.691Z,23.17
2023-02-26T07:00:09.800Z,23.03
2023-02-26T07:02:40.816Z,22.89
2023-02-26T07:05:12.494Z,22.80
2023-02-26T07:07:43.051Z,22.80
2023-02-26T07:10:15.061Z,22.72
2023-02-26T07:12:45.687Z,22.64
2023-02-26T07:15:15.914Z,22.67
2023-02-26T07:17:46.350Z,22.72
2023-02-26T07:20:16.471Z,22.72
2023-02-26T07:22:49.742Z,22.76
2023-02-26T07:25:20.578Z,22.66
2023-02-26T07:27:55.168Z,22.72
2023-02-26T07:30:26.752Z,22.73
2023-02-26T07:33:01.026Z,22.69
2023-02-26T07:35:31.448Z,22.64
2023-02-26T07:38:02.160Z,22.64
2023-02-26T07:40:33.281Z,22.66
2023-02-26T07:43:06.783Z,22.64
2023-02-26T07:45:38.937Z,22.73
2023-02-26T07:48:09.098Z,22.73
2023-02-26T07:50:39.396Z,22.79
2023-02-26T07:53:10.866Z,22.76
2023-02-26T07:55:40.876Z,22.79
2023-02-26T07:58:11.248Z,22.82
2023-02-26T08:00:44.405Z,22.87
2023-02-26T08:03:18.200Z,22.83
2023-02-26T08:05:49.144Z,22.90
2023-02-26T08:08:20.010Z,22.90
2023-02-26T08:10:50.207Z,22.94
2023-02-26T08:13:20.820Z,22.87
2023-02-26T08:15:54.073Z,22.83
2023-02-26T08:18:24.685Z,22.89
2023-02-26T08:20:55.443Z,22.77
2023-02-26T08:23:26.645Z,22.77
2023-02-26T08:26:24.914Z,22.74
2023-02-26T08:28:55.758Z,22.72
2023-02-26T08:31:25.900Z,22.64
2023-02-26T08:33:58.086Z,22.67
2023-02-26T08:36:29.100Z,22.67
2023-02-26T08:39:02.058Z,22.60
2023-02-26T08:41:35.428Z,22.63
2023-02-26T08:44:05.943Z,22.62
2023-02-26T08:46:37.517Z,22.67
2023-02-26T08:49:08.452Z,22.76
2023-02-26T08:51:42.460Z,22.74
2023-02-26T08:54:14.444Z,22.69
2023-02-26T08:56:45.419Z,22.76
2023-02-26T08:59:15.698Z,22.77
2023-02-26T09:01:46.224Z,22.94
2023-02-26T09:04:17.072Z,23.00
2023-02-26T09:06:49.333Z,23.07
2023-02-26T09:09:21.298Z,23.13
2023-02-26T09:11:51.346Z,23.17
2023-02-26T09:14:22.169Z,23.23
2023-02-26T09:16:53.783Z,23.25
2023-02-26T09:19:24.123Z,23.23
2023-02-26T09:21:54.511Z,23.24
2023-02-26T09:24:25.202Z,23.31
2023-02-26T09:26:55.245Z,23.40
2023-02-26T09:29:26.243Z,23.41
2023-02-26T09:31:58.049Z,23.48
2023-02-26T09:34:29.074Z,23.50
2023-02-26T09:36:59.417Z,23.50
2023-02-26T09:39:29.391Z,23.48
2023-02-26T09:42:04.321Z,23.47
2023-02-26T09:44:38.424Z,23.47
2023-02-26T09:47:18.346Z,23.47
2023-02-26T09:49:56.010Z,23.44
2023-02-26T09:52:29.305Z,23.50
2023-02-26T09:55:08.656Z,23.53
2023-02-26T09:57:47.573Z,23.55
2023-02-26T10:00:41.606Z,23.61
2023-02-26T10:03:49.549Z,23.61
2023-02-26T10:06:30.902Z,23.61
2023-02-26T10:09:35.700Z,23.69
2023-02-26T10:12:22.197Z,23.67
2023-02-26T10:15:12.104Z,23.75
2023-02-26T10:17:58.777Z,23.79
2023-02-26T10:20:50.257Z,23.81
2023-02-26T10:23:27.934Z,23.81
2023-02-26T10:26:26.612Z,23.85
2023-02-26T10:29:14.095Z,23.86
2023-02-26T10:32:01.006Z,23.94
2023-02-26T10:34:55.850Z,23.98
2023-02-26T10:37:42.101Z,24.06
2023-02-26T10:40:44.171Z,24.15
2023-02-26T10:43:33.520Z,24.19
2023-02-26T10:46:30.255Z,24.28
2023-02-26T10:49:27.923Z,24.49
2023-02-26T10:52:00.035Z,24.61
2023-02-26T10:54:37.641Z,24.77
2023-02-26T10:57:19.580Z,24.94
2023-02-26T10:59:51.056Z,25.06
2023-02-26T11:02:39.051Z,25.21
2023-02-26T11:05:18.865Z,25.34
2023-02-26T11:07:54.989Z,25.43
2023-02-26T11:10:40.166Z,25.62
2023-02-26T11:13:11.428Z,25.78
2023-02-26T11:15:42.869Z,25.92
2023-02-26T11:18:24.806Z,26.10
2023-02-26T11:21:01.812Z,26.32
2023-02-26T11:23:35.467Z,26.46
2023-02-26T11:26:10.476Z,26.57
2023-02-26T11:28:46.147Z,26.90
2023-02-26T11:31:20.550Z,26.90
2023-02-26T11:34:06.427Z,27.11
2023-02-26T11:36:41.366Z,27.22
2023-02-26T11:39:21.143Z,27.27
2023-02-26T11:41:54.569Z,27.31
2023-02-26T11:44:53.879Z,27.39
2023-02-26T11:47:28.694Z,27.52
2023-02-26T11:50:07.278Z,27.55
2023-02-26T11:52:43.494Z,27.62
2023-02-26T11:55:24.272Z,27.73
2023-02-26T11:57:56.259Z,27.69
2023-02-26T12:00:41.474Z,27.79
2023-02-26T12:03:21.372Z,27.85
2023-02-26T12:05:54.420Z,28.00
2023-02-26T12:08:33.688Z,28.06
2023-02-26T12:11:15.388Z,28.33
2023-02-26T12:14:00.530Z,28.84
2023-02-26T12:16:52.648Z,28.99
2023-02-26T12:20:27.939Z,29.02
2023-02-26T12:23:08.951Z,28.90
2023-02-26T12:25:50.756Z,28.88
2023-02-26T12:28:52.758Z,29.05
2023-02-26T12:31:49.008Z,29.19
2023-02-26T12:34:38.773Z,29.18
2023-02-26T12:37:33.840Z,29.33
2023-02-26T12:40:51.356Z,29.52
2023-02-26T12:43:35.703Z,29.67
2023-02-26T12:46:29.679Z,29.78
2023-02-26T12:49:25.099Z,29.86
2023-02-26T12:52:35.476Z,29.88
2023-02-26T12:55:19.691Z,29.98
2023-02-26T12:58:14.980Z,30.06
2023-02-26T13:00:56.911Z,30.14
2023-02-26T13:03:45.778Z,30.27
2023-02-26T13:06:46.459Z,30.42
2023-02-26T13:09:32.598Z,30.42
2023-02-26T13:12:24.093Z,30.76
2023-02-26T13:15:06.481Z,30.71
2023-02-26T13:18:13.708Z,30.69
2023-02-26T13:20:57.612Z,30.67
2023-02-26T13:23:36.806Z,30.81
2023-02-26T13:26:13.710Z,30.72
2023-02-26T13:28:59.187Z,30.29
2023-02-26T13:31:41.623Z,29.83
2023-02-26T13:34:35.458Z,30.07
2023-02-26T13:37:07.027Z,30.41
2023-02-26T13:40:09.314Z,30.95
2023-02-26T13:43:17.165Z,31.64
2023-02-26T13:46:26.623Z,31.70
2023-02-26T13:49:11.066Z,31.90
2023-02-26T13:51:50.368Z,31.83
2023-02-26T13:54:23.719Z,31.83
2023-02-26T13:57:36.809Z,32.18
2023-02-26T14:00:38.667Z,32.27
2023-02-26T14:03:18.124Z,32.39
2023-02-26T14:05:48.314Z,32.46
2023-02-26T14:08:29.075Z,32.69
2023-02-26T14:11:05.733Z,33.51
2023-02-26T14:13:40.381Z,33.37
2023-02-26T14:16:26.700Z,34.05
2023-02-26T14:19:20.512Z,34.21
2023-02-26T14:21:55.951Z,33.80
2023-02-26T14:24:40.521Z,33.66
2023-02-26T14:27:14.423Z,33.63
2023-02-26T14:29:59.674Z,33.90
2023-02-26T14:32:54.844Z,34.07
2023-02-26T14:35:31.600Z,34.35
2023-02-26T14:38:09.342Z,34.27
2023-02-26T14:41:08.816Z,34.17
2023-02-26T14:44:00.008Z,33.82
2023-02-26T14:46:36.249Z,33.84
2023-02-26T14:49:14.168Z,34.24
2023-02-26T14:52:15.441Z,35.10
2023-02-26T14:55:18.760Z,34.96
2023-02-26T14:58:07.379Z,34.68
2023-02-26T15:01:31.998Z,34.39
2023-02-26T15:04:40.771Z,34.04
2023-02-26T15:07:16.536Z,33.64
2023-02-26T15:10:12.921Z,33.61
2023-02-26T15:13:26.233Z,33.57
2023-02-26T15:16:17.760Z,33.30
2023-02-26T15:18:51.156Z,33.22
2023-02-26T15:22:05.794Z,33.19
2023-02-26T15:24:36.105Z,32.92
2023-02-26T15:27:10.128Z,32.75
2023-02-26T15:29:44.642Z,32.68
2023-02-26T15:32:39.152Z,32.66
2023-02-26T15:35:23.791Z,32.71
2023-02-26T15:38:00.317Z,32.51
2023-02-26T15:40:37.145Z,32.29
2023-02-26T15:43:10.372Z,32.17
2023-02-26T15:45:46.894Z,31.88
2023-02-26T15:48:22.994Z,31.73
2023-02-26T15:50:57.975Z,31.66
2023-02-26T15:53:49.627Z,31.73
2023-02-26T15:56:36.580Z,31.84
2023-02-26T15:59:09.315Z,32.14
2023-02-26T16:01:46.207Z,31.94
2023-02-26T16:04:21.753Z,31.87
2023-02-26T16:06:58.234Z,31.83
2023-02-26T16:09:33.182Z,31.83
2023-02-26T16:12:13.386Z,31.97
2023-02-26T16:14:48.937Z,32.10
2023-02-26T16:17:28.274Z,32.14
2023-02-26T16:20:05.419Z,32.04
2023-02-26T16:22:51.677Z,31.98
2023-02-26T16:25:31.851Z,31.91
2023-02-26T16:28:23.146Z,31.88
2023-02-26T16:30:57.690Z,31.64
2023-02-26T16:33:30.994Z,31.46
2023-02-26T16:36:19.422Z,31.54
2023-02-26T16:39:02.024Z,31.57
2023-02-26T16:41:38.094Z,31.60
2023-02-26T16:44:37.005Z,31.66
2023-02-26T16:47:11.778Z,31.70
2023-02-26T16:49:43.592Z,31.97
2023-02-26T16:52:27.917Z,31.69
2023-02-26T16:55:07.320Z,31.40
2023-02-26T16:57:46.208Z,31.37
2023-02-26T17:00:32.265Z,31.12
2023-02-26T17:03:12.769Z,30.99
2023-02-26T17:06:00.146Z,30.88
2023-02-26T17:08:33.311Z,31.00
2023-02-26T17:11:09.646Z,30.71
2023-02-26T17:13:41.807Z,30.71
2023-02-26T17:16:14.993Z,30.72
2023-02-26T17:18:45.396Z,30.58
2023-02-26T17:21:15.198Z,30.44
2023-02-26T17:23:45.622Z,30.47
2023-02-26T17:26:15.425Z,30.37
2023-02-26T17:28:45.681Z,30.28
2023-02-26T17:31:16.321Z,30.14
2023-02-26T17:33:46.614Z,29.91
2023-02-26T17:36:20.871Z,29.80
2023-02-26T17:38:54.619Z,29.78
2023-02-26T17:41:29.496Z,29.69
2023-02-26T17:43:59.868Z,29.69
2023-02-26T17:46:29.634Z,29.57
2023-02-26T17:49:00.591Z,29.47
2023-02-26T17:51:30.951Z,29.37
2023-02-26T17:54:01.183Z,29.46
2023-02-26T17:56:34.907Z,29.43
2023-02-26T17:59:08.482Z,29.39
2023-02-26T18:01:39.644Z,29.32
2023-02-26T18:04:10.723Z,29.19
2023-02-26T18:06:40.983Z,29.05
2023-02-26T18:09:14.160Z,28.91
2023-02-26T18:11:44.337Z,28.91
2023-02-26T18:14:14.122Z,28.88
2023-02-26T18:16:46.792Z,28.90
2023-02-26T18:19:16.759Z,28.96
2023-02-26T18:21:46.475Z,29.02
2023-02-26T18:24:16.427Z,29.23
2023-02-26T18:26:46.468Z,29.19
2023-02-26T18:29:17.582Z,29.30
2023-02-26T18:31:48.457Z,29.33
2023-02-26T18:34:20.549Z,29.39
2023-02-26T18:36:51.005Z,29.50
2023-02-26T18:39:21.726Z,29.45
2023-02-26T18:41:51.926Z,29.39
2023-02-26T18:44:23.348Z,29.25
2023-02-26T18:46:53.694Z,29.25
2023-02-26T18:49:24.273Z,29.23
2023-02-26T18:51:56.354Z,29.32
2023-02-26T18:54:27.462Z,29.45
2023-02-26T18:56:58.542Z,29.50
2023-02-26T18:59:28.774Z,29.56
2023-02-26T19:02:00.320Z,29.67
2023-02-26T19:04:30.762Z,29.81
2023-02-26T19:07:02.228Z,29.87
2023-02-26T19:09:32.614Z,30.00
2023-02-26T19:12:04.459Z,30.04
2023-02-26T19:14:38.022Z,30.06
2023-02-26T19:17:08.378Z,30.14
2023-02-26T19:19:38.564Z,30.20
2023-02-26T19:22:09.774Z,30.34
2023-02-26T19:24:40.031Z,30.45
2023-02-26T19:27:11.214Z,30.71
2023-02-26T19:29:42.411Z,30.89
2023-02-26T19:32:13.036Z,31.00
2023-02-26T19:34:44.307Z,30.82
2023-02-26T19:37:14.146Z,30.54
2023-02-26T19:39:44.191Z,30.39
2023-02-26T19:42:15.122Z,30.32
2023-02-26T19:44:45.577Z,30.14
2023-02-26T19:47:15.549Z,30.27
2023-02-26T19:49:48.193Z,30.90
2023-02-26T19:52:20.439Z,30.99
2023-02-26T19:54:52.646Z,30.99
2023-02-26T19:57:23.273Z,31.59
2023-02-26T19:59:53.338Z,31.85
2023-02-26T20:02:23.614Z,32.03
2023-02-26T20:04:53.929Z,32.13
2023-02-26T20:07:23.769Z,32.11
2023-02-26T20:09:54.993Z,31.70
2023-02-26T20:12:25.459Z,31.78
2023-02-26T20:14:55.497Z,31.32
2023-02-26T20:17:25.535Z,30.96
2023-02-26T20:19:55.641Z,30.54
2023-02-26T20:22:26.242Z,30.34
2023-02-26T20:24:56.332Z,30.14
2023-02-26T20:27:27.062Z,30.04
2023-02-26T20:29:57.305Z,30.11
2023-02-26T20:32:27.568Z,30.00
2023-02-26T20:34:57.686Z,29.76
2023-02-26T20:37:28.970Z,29.59
2023-02-26T20:40:00.151Z,29.52
2023-02-26T20:42:31.200Z,29.46
2023-02-26T20:45:02.615Z,29.49
2023-02-26T20:47:33.869Z,29.37
2023-02-26T20:50:04.584Z,29.25
2023-02-26T20:52:37.498Z,29.16
2023-02-26T20:55:08.405Z,29.14
2023-02-26T20:57:40.147Z,29.12
2023-02-26T21:00:16.723Z,29.19
2023-02-26T21:02:47.299Z,29.36
2023-02-26T21:05:18.284Z,29.43
2023-02-26T21:07:49.197Z,29.45
2023-02-26T21:10:21.357Z,29.33
2023-02-26T21:12:53.067Z,29.25
2023-02-26T21:15:23.412Z,29.06
2023-02-26T21:17:54.905Z,28.91
2023-02-26T21:20:25.360Z,28.72
2023-02-26T21:22:58.597Z,28.67
2023-02-26T21:25:28.991Z,28.54
2023-02-26T21:27:59.837Z,28.51
2023-02-26T21:30:30.546Z,28.43
2023-02-26T21:33:00.590Z,28.28
2023-02-26T21:35:30.718Z,28.20
2023-02-26T21:38:01.446Z,28.10
2023-02-26T21:40:34.062Z,28.07
2023-02-26T21:43:05.692Z,28.00
2023-02-26T21:45:38.824Z,27.90
2023-02-26T21:48:09.725Z,27.78
2023-02-26T21:50:39.753Z,27.69
2023-02-26T21:53:09.992Z,27.53
2023-02-26T21:55:41.074Z,27.48
2023-02-26T21:58:11.719Z,27.35
2023-02-26T22:00:41.515Z,27.25
2023-02-26T22:03:12.451Z,27.22
2023-02-26T22:05:43.282Z,27.14
2023-02-26T22:08:13.559Z,27.04
2023-02-26T22:10:43.638Z,26.95
2023-02-26T22:13:15.460Z,26.80
2023-02-26T22:15:45.545Z,26.80
2023-02-26T22:18:15.591Z,26.63
2023-02-26T22:20:49.559Z,26.54
2023-02-26T22:23:19.772Z,26.51
2023-02-26T22:25:49.548Z,26.48
2023-02-26T22:28:19.941Z,26.37
2023-02-26T22:30:53.669Z,26.34
2023-02-26T22:33:26.824Z,26.27
2023-02-26T22:35:59.324Z,26.22
2023-02-26T22:38:30.379Z,26.16
2023-02-26T22:41:01.170Z,26.10
2023-02-26T22:43:31.439Z,26.07
2023-02-26T22:46:01.703Z,26.06
2023-02-26T22:48:33.310Z,26.05
2023-02-26T22:51:04.251Z,26.03
2023-02-26T22:53:34.523Z,25.99
2023-02-26T22:56:07.381Z,25.96
2023-02-26T22:58:37.782Z,25.93
2023-02-26T23:01:09.550Z,25.90
2023-02-26T23:03:42.113Z,25.88
2023-02-26T23:06:12.595Z,25.85
2023-02-26T23:08:44.129Z,25.83
2023-02-26T23:11:14.215Z,25.76
2023-02-26T23:13:44.518Z,25.76
2023-02-26T23:16:17.174Z,25.76
2023-02-26T23:18:49.972Z,25.75
2023-02-26T23:21:20.396Z,25.57
2023-02-26T23:23:50.430Z,25.46
2023-02-26T23:26:20.699Z,25.42
2023-02-26T23:28:50.942Z,25.35
2023-02-26T23:31:21.527Z,25.28
2023-02-26T23:33:51.598Z,25.22
2023-02-26T23:36:21.838Z,25.12
2023-02-26T23:38:51.944Z,25.03
2023-02-26T23:41:22.184Z,24.98
2023-02-26T23:43:53.565Z,24.98
2023-02-26T23:46:28.407Z,24.90
2023-02-26T23:49:00.166Z,24.81
2023-02-26T23:51:30.542Z,24.73
2023-02-26T23:54:00.586Z,24.67
2023-02-26T23:56:31.535Z,24.63
2023-02-26T23:59:01.888Z,24.55
